createdAt,value
2022-12-25T00:01:38.457Z,17.65
2022-12-25T00:04:04.992Z,19.13
2022-12-25T00:06:31.337Z,30.08
2022-12-25T00:08:57.695Z,36.03
2022-12-25T00:11:24.088Z,25.63
2022-12-25T00:13:50.683Z,16.38
2022-12-25T00:16:20.206Z,27.50
2022-12-25T00:18:47.145Z,23.58
2022-12-25T00:21:14.493Z,21.63
2022-12-25T00:23:41.169Z,27.15
2022-12-25T00:26:10.190Z,24.77
2022-12-25T00:28:36.870Z,23.15
2022-12-25T00:31:08.264Z,29.95
2022-12-25T00:33:36.812Z,18.20
2022-12-25T00:36:06.101Z,19.23
2022-12-25T00:38:34.706Z,22.52
2022-12-25T00:41:52.674Z,31.08
2022-12-25T00:44:19.274Z,20.67
2022-12-25T00:46:45.635Z,22.70
2022-12-25T00:49:13.403Z,24.17
2022-12-25T00:51:39.791Z,31.20
2022-12-25T00:54:06.502Z,26.33
2022-12-25T00:56:33.677Z,21.48
2022-12-25T00:59:00.018Z,31.93
2022-12-25T01:01:26.490Z,16.35
2022-12-25T01:03:52.950Z,20.23
2022-12-25T01:06:19.298Z,17.77
2022-12-25T01:09:04.199Z,22.85
2022-12-25T01:11:31.446Z,16.10
2022-12-25T01:13:58.304Z,18.30
2022-12-25T01:16:24.916Z,28.85
2022-12-25T01:18:51.341Z,22.13
2022-12-25T01:21:20.948Z,19.40
2022-12-25T01:23:48.153Z,23.47
2022-12-25T01:26:15.901Z,19.48
2022-12-25T01:28:42.449Z,17.35
2022-12-25T01:31:11.633Z,24.42
2022-12-25T01:33:38.958Z,18.23
2022-12-25T01:36:15.550Z,21.77
2022-12-25T01:38:43.352Z,23.48
2022-12-25T01:41:11.654Z,19.48
2022-12-25T01:44:00.969Z,18.55
2022-12-25T01:46:27.685Z,23.35
2022-12-25T01:48:55.703Z,17.63
2022-12-25T01:51:28.839Z,17.25
2022-12-25T01:53:57.805Z,23.45
2022-12-25T01:56:25.817Z,17.75
2022-12-25T01:58:52.534Z,15.05
2022-12-25T02:01:18.996Z,14.40
2022-12-25T02:03:45.748Z,18.92
2022-12-25T02:06:12.168Z,21.55
2022-12-25T02:08:38.540Z,16.08
2022-12-25T02:11:04.873Z,22.30
2022-12-25T02:13:31.498Z,14.87
2022-12-25T02:16:13.266Z,24.40
2022-12-25T02:19:05.794Z,16.13
2022-12-25T02:22:08.342Z,16.10
2022-12-25T02:25:08.239Z,18.42
2022-12-25T02:28:05.372Z,11.63
2022-12-25T02:30:37.245Z,17.85
2022-12-25T02:33:31.313Z,20.20
2022-12-25T02:36:00.398Z,19.45
2022-12-25T02:38:38.977Z,18.30
2022-12-25T02:41:11.448Z,19.63
2022-12-25T02:44:01.962Z,15.02
2022-12-25T02:46:50.314Z,16.98
2022-12-25T02:49:41.119Z,16.48
2022-12-25T02:52:52.895Z,20.08
2022-12-25T02:55:43.111Z,15.23
2022-12-25T02:58:33.399Z,12.95
2022-12-25T03:01:23.860Z,18.77
2022-12-25T03:04:12.536Z,25.85
2022-12-25T03:06:46.292Z,18.35
2022-12-25T03:09:40.909Z,18.50
2022-12-25T03:12:16.810Z,18.95
2022-12-25T03:15:02.561Z,20.55
2022-12-25T03:17:32.218Z,22.55
2022-12-25T03:20:18.119Z,17.77
2022-12-25T03:23:04.886Z,18.13
2022-12-25T03:25:50.314Z,16.02
2022-12-25T03:28:16.785Z,18.40
2022-12-25T03:31:14.083Z,19.42
2022-12-25T03:34:12.418Z,17.67
2022-12-25T03:37:15.932Z,18.90
2022-12-25T03:39:56.991Z,14.95
2022-12-25T03:42:46.242Z,12.18
2022-12-25T03:45:40.824Z,16.73
2022-12-25T03:48:12.841Z,22.63
2022-12-25T03:51:03.904Z,17.57
2022-12-25T03:53:56.724Z,15.48
2022-12-25T03:56:42.545Z,26.05
2022-12-25T03:59:27.281Z,23.73
2022-12-25T04:02:12.094Z,25.05
2022-12-25T04:04:57.471Z,17.57
2022-12-25T04:07:42.719Z,18.92
2022-12-25T04:10:27.924Z,13.05
2022-12-25T04:13:12.836Z,17.77
2022-12-25T04:15:58.155Z,13.90
2022-12-25T04:18:43.364Z,10.47
2022-12-25T04:21:28.048Z,13.57
2022-12-25T04:24:12.730Z,17.75
2022-12-25T04:26:57.377Z,13.20
2022-12-25T04:29:41.983Z,15.73
2022-12-25T04:32:26.745Z,16.07
2022-12-25T04:35:11.461Z,16.17
2022-12-25T04:37:37.827Z,9.77
2022-12-25T04:40:04.746Z,13.55
2022-12-25T04:42:31.067Z,16.15
2022-12-25T04:44:57.590Z,13.17
2022-12-25T04:47:23.906Z,9.68
2022-12-25T04:49:50.352Z,18.15
2022-12-25T04:52:16.709Z,14.63
2022-12-25T04:54:43.029Z,13.38
2022-12-25T04:57:09.352Z,9.87
2022-12-25T04:59:35.716Z,11.77
2022-12-25T05:02:02.394Z,12.40
2022-12-25T05:04:28.785Z,10.10
2022-12-25T05:06:55.155Z,11.02
2022-12-25T05:09:21.472Z,12.37
2022-12-25T05:11:47.811Z,10.32
2022-12-25T05:14:14.251Z,9.90
2022-12-25T05:16:40.885Z,13.45
2022-12-25T05:19:07.306Z,14.52
2022-12-25T05:21:33.724Z,12.97
2022-12-25T05:24:00.052Z,13.70
2022-12-25T05:26:27.426Z,16.55
2022-12-25T05:28:54.075Z,11.85
2022-12-25T05:31:21.247Z,13.45
2022-12-25T05:33:51.504Z,14.47
2022-12-25T05:36:18.470Z,21.30
2022-12-25T05:38:45.003Z,13.82
2022-12-25T05:41:11.358Z,7.07
2022-12-25T05:43:37.738Z,12.45
2022-12-25T05:46:06.474Z,14.90
2022-12-25T05:48:34.305Z,11.95
2022-12-25T05:51:09.052Z,10.88
2022-12-25T05:53:35.828Z,6.22
2022-12-25T05:56:04.429Z,12.27
2022-12-25T05:58:32.710Z,15.97
2022-12-25T06:00:59.397Z,10.70
2022-12-25T06:03:26.517Z,10.23
2022-12-25T06:05:53.350Z,9.05
2022-12-25T06:08:19.888Z,11.55
2022-12-25T06:10:46.588Z,12.27
2022-12-25T06:13:13.116Z,7.55
2022-12-25T06:15:40.796Z,9.88
2022-12-25T06:18:07.353Z,10.15
2022-12-25T06:20:34.069Z,8.73
2022-12-25T06:23:01.036Z,14.23
2022-12-25T06:25:27.406Z,9.02
2022-12-25T06:27:54.846Z,11.90
2022-12-25T06:30:21.614Z,13.85
2022-12-25T06:32:47.949Z,11.15
2022-12-25T06:35:14.464Z,11.07
2022-12-25T06:37:40.797Z,8.35
2022-12-25T06:40:07.870Z,5.75
2022-12-25T06:42:34.205Z,12.00
2022-12-25T06:45:00.508Z,6.50
2022-12-25T06:47:26.818Z,7.63
2022-12-25T06:49:53.156Z,7.18
2022-12-25T06:52:19.487Z,10.27
2022-12-25T06:54:46.995Z,9.52
2022-12-25T06:57:13.387Z,6.05
2022-12-25T06:59:39.722Z,9.60
2022-12-25T07:02:06.233Z,8.80
2022-12-25T07:04:42.248Z,7.05
2022-12-25T07:07:09.720Z,9.00
2022-12-25T07:09:38.526Z,13.30
2022-12-25T07:12:20.325Z,9.00
2022-12-25T07:14:48.923Z,4.97
2022-12-25T07:17:19.899Z,7.38
2022-12-25T07:19:47.189Z,6.85
2022-12-25T07:22:14.585Z,8.85
2022-12-25T07:24:40.913Z,8.80
2022-12-25T07:27:08.204Z,13.43
2022-12-25T07:29:34.919Z,9.75
2022-12-25T07:32:01.741Z,7.57
2022-12-25T07:34:28.135Z,8.45
2022-12-25T07:36:55.000Z,5.93
2022-12-25T07:39:21.417Z,9.88
2022-12-25T07:41:47.782Z,7.57
2022-12-25T07:44:14.446Z,11.48
2022-12-25T07:46:40.847Z,8.70
2022-12-25T07:49:07.183Z,5.87
2022-12-25T07:51:33.571Z,5.47
2022-12-25T07:53:59.954Z,6.50
2022-12-25T07:56:26.296Z,6.68
2022-12-25T07:58:52.661Z,11.75
2022-12-25T08:01:21.842Z,6.57
2022-12-25T08:03:57.088Z,5.22
2022-12-25T08:06:29.405Z,5.43
2022-12-25T08:08:57.225Z,6.57
2022-12-25T08:11:23.578Z,5.47
2022-12-25T08:13:49.916Z,6.33
2022-12-25T08:16:16.310Z,8.40
2022-12-25T08:18:43.568Z,5.65
2022-12-25T08:21:12.992Z,5.53
2022-12-25T08:23:41.999Z,4.05
2022-12-25T08:26:11.154Z,3.80
2022-12-25T08:28:37.584Z,8.63
2022-12-25T08:31:30.506Z,7.60
2022-12-25T08:33:58.541Z,4.18
2022-12-25T08:36:25.265Z,6.93
2022-12-25T08:38:52.714Z,4.60
2022-12-25T08:41:22.919Z,4.13
2022-12-25T08:43:49.430Z,6.25
2022-12-25T08:46:15.793Z,7.15
2022-12-25T08:48:43.882Z,5.03
2022-12-25T08:51:17.342Z,6.80
2022-12-25T08:53:44.797Z,4.95
2022-12-25T08:56:11.300Z,6.95
2022-12-25T08:58:38.143Z,6.55
2022-12-25T09:01:05.277Z,6.38
2022-12-25T09:03:34.786Z,10.20
2022-12-25T09:06:06.171Z,8.23
2022-12-25T09:08:32.861Z,7.55
2022-12-25T09:11:08.241Z,5.57
2022-12-25T09:13:35.077Z,6.15
2022-12-25T09:16:09.838Z,4.53
2022-12-25T09:18:36.306Z,7.63
2022-12-25T09:21:05.930Z,3.33
2022-12-25T09:23:32.589Z,6.55
2022-12-25T09:26:00.328Z,9.07
2022-12-25T09:28:26.732Z,8.67
2022-12-25T09:30:53.848Z,6.25
2022-12-25T09:33:20.945Z,5.72
2022-12-25T09:35:58.938Z,7.53
2022-12-25T09:38:25.774Z,5.68
2022-12-25T09:41:07.253Z,5.27
2022-12-25T09:43:40.694Z,5.70
2022-12-25T09:46:14.638Z,5.40
2022-12-25T09:48:47.924Z,4.00
2022-12-25T09:51:17.029Z,6.75
2022-12-25T09:53:51.649Z,5.67
2022-12-25T09:56:25.528Z,5.90
2022-12-25T09:58:53.476Z,6.20
2022-12-25T10:01:40.505Z,7.57
2022-12-25T10:04:50.225Z,7.63
2022-12-25T10:07:43.338Z,6.60
2022-12-25T10:10:54.920Z,6.63
2022-12-25T10:13:51.122Z,5.50
2022-12-25T10:16:31.849Z,5.80
2022-12-25T10:19:18.929Z,7.10
2022-12-25T10:21:46.267Z,8.70
2022-12-25T10:24:26.512Z,7.93
2022-12-25T10:26:55.466Z,6.18
2022-12-25T10:29:22.016Z,7.30
2022-12-25T10:31:52.245Z,7.43
2022-12-25T10:34:18.554Z,5.40
2022-12-25T10:36:46.117Z,8.43
2022-12-25T10:39:20.234Z,7.40
2022-12-25T10:42:22.385Z,6.90
2022-12-25T10:45:15.254Z,6.07
2022-12-25T10:47:42.566Z,6.53
2022-12-25T10:50:11.717Z,7.00
2022-12-25T10:52:53.941Z,6.78
2022-12-25T10:55:26.580Z,6.28
2022-12-25T10:57:55.141Z,8.00
2022-12-25T11:00:24.630Z,7.83
2022-12-25T11:02:51.623Z,6.70
2022-12-25T11:05:32.040Z,8.18
2022-12-25T11:08:01.063Z,6.72
2022-12-25T11:10:31.685Z,6.80
2022-12-25T11:12:59.622Z,7.43
2022-12-25T11:15:36.736Z,7.30
2022-12-25T11:18:24.979Z,9.95
2022-12-25T11:20:54.016Z,5.35
2022-12-25T11:23:22.390Z,10.02
2022-12-25T11:26:05.943Z,8.60
2022-12-25T11:28:35.053Z,8.25
2022-12-25T11:31:07.507Z,10.75
2022-12-25T11:33:45.102Z,9.15
2022-12-25T11:36:20.440Z,5.47
2022-12-25T11:38:46.935Z,5.10
2022-12-25T11:41:20.388Z,12.73
2022-12-25T11:43:56.537Z,8.38
2022-12-25T11:46:28.926Z,5.75
2022-12-25T11:49:02.065Z,8.05
2022-12-25T11:51:35.233Z,3.97
2022-12-25T11:54:18.213Z,5.32
2022-12-25T11:56:44.582Z,6.05
2022-12-25T11:59:23.960Z,8.43
2022-12-25T12:02:00.193Z,4.22
2022-12-25T12:04:42.008Z,6.93
2022-12-25T12:07:31.956Z,8.25
2022-12-25T12:10:15.314Z,11.00
2022-12-25T12:13:01.007Z,7.30
2022-12-25T12:15:30.752Z,5.25
2022-12-25T12:18:09.236Z,5.83
2022-12-25T12:20:36.694Z,7.13
2022-12-25T12:23:12.662Z,5.55
2022-12-25T12:25:42.290Z,7.22
2022-12-25T12:28:20.570Z,4.63
2022-12-25T12:31:06.181Z,5.40
2022-12-25T12:33:41.412Z,4.68
2022-12-25T12:36:12.823Z,8.27
2022-12-25T12:38:40.952Z,6.13
2022-12-25T12:41:08.884Z,9.55
2022-12-25T12:43:39.787Z,8.50
2022-12-25T12:46:25.938Z,10.10
2022-12-25T12:49:22.555Z,6.45
2022-12-25T12:51:49.006Z,8.05
2022-12-25T12:54:23.788Z,5.90
2022-12-25T12:57:21.474Z,7.00
2022-12-25T12:59:48.021Z,5.15
2022-12-25T13:02:26.610Z,8.50
2022-12-25T13:05:03.175Z,6.53
2022-12-25T13:07:53.510Z,8.45
2022-12-25T13:10:31.448Z,6.73
2022-12-25T13:13:01.631Z,6.68
2022-12-25T13:15:31.892Z,8.32
2022-12-25T13:18:03.296Z,9.75
2022-12-25T13:20:54.726Z,9.23
2022-12-25T13:23:24.235Z,8.03
2022-12-25T13:25:59.278Z,9.07
2022-12-25T13:28:38.641Z,5.30
2022-12-25T13:31:10.893Z,7.43
2022-12-25T13:33:37.604Z,8.38
2022-12-25T13:36:05.622Z,5.43
2022-12-25T13:38:31.974Z,10.65
2022-12-25T13:41:17.549Z,9.02
2022-12-25T13:43:45.240Z,7.35
2022-12-25T13:46:14.243Z,6.30
2022-12-25T13:48:41.591Z,9.13
2022-12-25T13:51:16.052Z,7.82
2022-12-25T13:53:43.751Z,6.57
2022-12-25T13:56:15.107Z,6.78
2022-12-25T13:58:42.166Z,6.63
2022-12-25T14:01:11.574Z,7.57
2022-12-25T14:03:42.635Z,8.35
2022-12-25T14:06:25.718Z,8.38
2022-12-25T14:08:54.796Z,5.85
2022-12-25T14:11:23.872Z,8.57
2022-12-25T14:13:54.075Z,9.57
2022-12-25T14:16:21.502Z,10.27
2022-12-25T14:18:56.184Z,6.40
2022-12-25T14:21:30.422Z,6.10
2022-12-25T14:23:57.299Z,7.57
2022-12-25T14:26:27.393Z,5.93
2022-12-25T14:29:15.661Z,6.63
2022-12-25T14:31:43.794Z,6.15
2022-12-25T14:34:21.580Z,9.05
2022-12-25T14:36:48.913Z,8.63
2022-12-25T14:39:30.087Z,13.53
2022-12-25T14:41:56.700Z,7.88
2022-12-25T14:44:34.527Z,8.80
2022-12-25T14:47:20.619Z,10.70
2022-12-25T14:49:47.878Z,9.02
2022-12-25T14:52:42.018Z,14.13
2022-12-25T14:55:18.649Z,10.52
2022-12-25T14:57:49.216Z,5.68
2022-12-25T15:00:21.985Z,8.55
2022-12-25T15:02:50.448Z,7.95
2022-12-25T15:05:37.172Z,8.13
2022-12-25T15:08:19.511Z,6.85
2022-12-25T15:10:59.821Z,6.20
2022-12-25T15:13:27.646Z,6.53
2022-12-25T15:16:15.898Z,7.82
2022-12-25T15:18:45.129Z,9.07
2022-12-25T15:21:25.610Z,13.77
2022-12-25T15:23:53.959Z,8.18
2022-12-25T15:26:20.266Z,7.63
2022-12-25T15:28:46.657Z,12.25
2022-12-25T15:31:33.250Z,14.23
2022-12-25T15:34:02.212Z,6.57
2022-12-25T15:36:28.908Z,10.57
2022-12-25T15:38:56.130Z,7.13
2022-12-25T15:41:44.879Z,7.63
2022-12-25T15:44:12.481Z,8.67
2022-12-25T15:46:39.456Z,7.97
2022-12-25T15:49:05.952Z,8.13
2022-12-25T15:51:32.545Z,8.30
2022-12-25T15:53:59.550Z,7.38
2022-12-25T15:56:26.692Z,10.33
2022-12-25T15:58:52.995Z,6.65
2022-12-25T16:01:20.456Z,6.35
2022-12-25T16:03:47.320Z,7.00
2022-12-25T16:06:16.374Z,6.53
2022-12-25T16:08:43.337Z,8.93
2022-12-25T16:11:10.159Z,9.57
2022-12-25T16:13:36.603Z,6.97
2022-12-25T16:16:04.086Z,6.88
2022-12-25T16:18:30.963Z,6.20
2022-12-25T16:20:58.839Z,6.70
2022-12-25T16:23:25.341Z,6.07
2022-12-25T16:25:51.792Z,7.03
2022-12-25T16:28:18.175Z,6.13
2022-12-25T16:30:44.506Z,6.63
2022-12-25T16:33:11.428Z,6.00
2022-12-25T16:35:38.233Z,8.25
2022-12-25T16:38:04.566Z,7.45
2022-12-25T16:40:31.352Z,10.65
2022-12-25T16:42:57.952Z,6.30
2022-12-25T16:45:24.268Z,9.23
2022-12-25T16:47:50.653Z,7.38
2022-12-25T16:50:17.063Z,7.13
2022-12-25T16:52:43.416Z,7.70
2022-12-25T16:55:09.846Z,7.13
2022-12-25T16:57:36.235Z,6.33
2022-12-25T17:00:02.537Z,10.55
2022-12-25T17:02:29.030Z,7.90
2022-12-25T17:04:55.632Z,7.38
2022-12-25T17:07:22.032Z,7.80
2022-12-25T17:09:49.241Z,10.03
2022-12-25T17:12:16.285Z,6.90
2022-12-25T17:14:42.902Z,7.80
2022-12-25T17:17:09.388Z,10.88
2022-12-25T17:19:35.736Z,8.32
2022-12-25T17:22:02.152Z,8.50
2022-12-25T17:24:28.936Z,9.25
2022-12-25T17:26:55.439Z,9.88
2022-12-25T17:29:22.997Z,8.25
2022-12-25T17:31:50.005Z,12.43
2022-12-25T17:34:16.558Z,14.50
2022-12-25T17:36:42.923Z,25.85
2022-12-25T17:39:10.693Z,13.43
2022-12-25T17:41:37.098Z,54.20
2022-12-25T17:44:03.773Z,16.80
2022-12-25T17:46:30.510Z,15.30
2022-12-25T17:48:58.781Z,21.35
2022-12-25T17:51:27.413Z,26.75
2022-12-25T17:53:56.067Z,17.75
2022-12-25T17:56:23.764Z,27.85
2022-12-25T17:58:55.429Z,30.17
2022-12-25T18:01:23.600Z,35.33
2022-12-25T18:03:50.817Z,49.05
2022-12-25T18:06:20.535Z,17.73
2022-12-25T18:08:48.029Z,111.70
2022-12-25T18:11:21.278Z,41.30
2022-12-25T18:13:51.759Z,49.10
2022-12-25T18:16:20.588Z,20.35
2022-12-25T18:18:51.899Z,22.20
2022-12-25T18:21:20.192Z,19.15
2022-12-25T18:23:46.855Z,24.57
2022-12-25T18:26:13.695Z,45.55
2022-12-25T18:28:42.243Z,40.03
2022-12-25T18:31:11.659Z,29.17
2022-12-25T18:33:38.109Z,29.88
2022-12-25T18:36:05.050Z,18.10
2022-12-25T18:38:31.397Z,31.70
2022-12-25T18:40:57.999Z,88.78
2022-12-25T18:43:51.320Z,27.00
2022-12-25T18:46:11.089Z,29.00
2022-12-25T18:48:37.541Z,20.00
2022-12-25T18:51:07.009Z,23.10
2022-12-25T18:53:34.709Z,16.67
2022-12-25T18:56:13.338Z,13.15
2022-12-25T18:58:39.745Z,16.05
2022-12-25T19:01:17.604Z,28.77
2022-12-25T19:03:45.119Z,26.15
2022-12-25T19:06:27.921Z,31.75
2022-12-25T19:08:55.358Z,24.52
2022-12-25T19:11:22.575Z,21.55
2022-12-25T19:13:49.430Z,26.23
2022-12-25T19:16:15.827Z,20.77
2022-12-25T19:18:42.933Z,40.15
2022-12-25T19:21:10.043Z,31.90
2022-12-25T19:23:37.771Z,40.38
2022-12-25T19:26:05.529Z,21.83
2022-12-25T19:28:32.037Z,33.97
2022-12-25T19:31:01.533Z,31.10
2022-12-25T19:33:29.997Z,64.10
2022-12-25T19:36:05.147Z,31.52
2022-12-25T19:38:31.532Z,25.60
2022-12-25T19:41:01.090Z,26.13
2022-12-25T19:43:36.732Z,41.85
2022-12-25T19:46:04.536Z,25.08
2022-12-25T19:48:32.116Z,26.75
2022-12-25T19:50:58.773Z,21.97
2022-12-25T19:53:25.590Z,21.88
2022-12-25T19:55:53.791Z,25.08
2022-12-25T19:58:20.791Z,18.15
2022-12-25T20:01:11.687Z,19.65
2022-12-25T20:03:45.508Z,16.47
2022-12-25T20:06:25.719Z,19.65
2022-12-25T20:08:54.581Z,17.67
2022-12-25T20:11:24.947Z,18.15
2022-12-25T20:13:51.316Z,20.05
2022-12-25T20:16:17.986Z,13.47
2022-12-25T20:18:44.362Z,12.38
2022-12-25T20:21:14.374Z,14.45
2022-12-25T20:23:45.808Z,13.73
2022-12-25T20:26:13.215Z,18.95
2022-12-25T20:28:41.604Z,9.40
2022-12-25T20:31:20.440Z,23.90
2022-12-25T20:33:46.883Z,11.82
2022-12-25T20:36:14.045Z,11.55
2022-12-25T20:38:40.810Z,13.55
2022-12-25T20:41:28.831Z,10.40
2022-12-25T20:43:56.255Z,9.95
2022-12-25T20:46:23.012Z,10.80
2022-12-25T20:48:49.526Z,11.27
2022-12-25T20:51:18.653Z,12.40
2022-12-25T20:53:45.731Z,11.93
2022-12-25T20:56:14.268Z,12.88
2022-12-25T20:58:40.760Z,14.25
2022-12-25T21:01:10.109Z,11.15
2022-12-25T21:03:36.710Z,13.23
2022-12-25T21:06:03.233Z,10.93
2022-12-25T21:08:29.954Z,14.35
2022-12-25T21:11:00.685Z,16.83
2022-12-25T21:13:33.368Z,18.27
2022-12-25T21:16:00.294Z,18.05
2022-12-25T21:18:28.295Z,16.80
2022-12-25T21:20:57.161Z,17.77
2022-12-25T21:23:26.547Z,22.77
2022-12-25T21:25:54.541Z,15.25
2022-12-25T21:28:21.439Z,16.05
2022-12-25T21:30:47.892Z,17.43
2022-12-25T21:33:33.149Z,17.42
2022-12-25T21:36:10.853Z,17.10
2022-12-25T21:38:38.027Z,16.88
2022-12-25T21:41:05.327Z,15.07
2022-12-25T21:43:33.355Z,16.17
2022-12-25T21:46:08.340Z,17.98
2022-12-25T21:48:36.995Z,16.35
2022-12-25T21:51:23.471Z,20.42
2022-12-25T21:53:49.842Z,16.70
2022-12-25T21:56:16.577Z,21.77
2022-12-25T21:58:42.968Z,17.30
2022-12-25T22:01:11.585Z,19.85
2022-12-25T22:03:37.995Z,18.55
2022-12-25T22:06:23.088Z,17.45
2022-12-25T22:08:49.412Z,20.33
2022-12-25T22:11:34.078Z,16.80
2022-12-25T22:14:18.639Z,19.52
2022-12-25T22:17:23.511Z,17.67
2022-12-25T22:19:50.169Z,15.15
2022-12-25T22:22:21.515Z,17.23
2022-12-25T22:24:52.657Z,13.23
2022-12-25T22:27:19.972Z,12.70
2022-12-25T22:29:46.350Z,10.50
2022-12-25T22:32:13.753Z,7.05
2022-12-25T22:34:40.581Z,10.83
2022-12-25T22:37:08.427Z,10.75
2022-12-25T22:39:35.556Z,9.52
2022-12-25T22:42:02.128Z,10.38
2022-12-25T22:44:30.749Z,10.60
2022-12-25T22:46:57.549Z,10.83
2022-12-25T22:49:24.994Z,11.45
2022-12-25T22:51:51.570Z,11.60
2022-12-25T22:54:19.746Z,9.15
2022-12-25T22:56:49.382Z,11.00
2022-12-25T22:59:18.004Z,12.30
2022-12-25T23:01:44.501Z,9.93
2022-12-25T23:04:11.485Z,10.32
2022-12-25T23:06:38.569Z,11.02
2022-12-25T23:09:07.298Z,12.65
2022-12-25T23:11:35.170Z,10.50
2022-12-25T23:14:19.908Z,9.85
2022-12-25T23:16:46.257Z,11.98
2022-12-25T23:19:32.509Z,11.63
2022-12-25T23:22:17.145Z,15.25
2022-12-25T23:25:02.447Z,10.93
2022-12-25T23:27:28.802Z,11.07
2022-12-25T23:29:55.109Z,10.65
2022-12-25T23:32:25.456Z,13.80
2022-12-25T23:34:52.368Z,12.68
2022-12-25T23:37:19.351Z,11.53
2022-12-25T23:39:46.254Z,12.95
2022-12-25T23:42:12.703Z,12.15
2022-12-25T23:44:39.066Z,8.98
2022-12-25T23:47:05.497Z,12.35
2022-12-25T23:49:31.929Z,10.00
2022-12-25T23:51:58.370Z,12.57
2022-12-25T23:54:30.604Z,13.23
2022-12-25T23:56:58.038Z,12.63
2022-12-25T23:59:29.592Z,14.00
